This is the latest recevied weather packets stored in our database for station/object K5KHP. If no packets are shown the sender has not sent any weather packets the latest 10 day(s).
| Time | Temp. | Humidity | Pressure | Rain* | Wind** | Luminosity | Snow |
|---|---|---|---|---|---|---|---|
| 1777928911 | 18.89° C | 63% | 1015.1 hPa | 0 mm | - | 351 W/m² | - |
| 1777928608 | 18.89° C | 62% | 1015 hPa | 0 mm | - | 515 W/m² | - |
| 1777928305 | 18.33° C | 65% | 1015.1 hPa | 0 mm | - | 670 W/m² | - |
| 1777928003 | 18.89° C | 65% | 1015.2 hPa | 0 mm | - | 415 W/m² | - |
| 1777927701 | 18.89° C | 64% | 1014.9 hPa | 0 mm | - | 505 W/m² | - |
| 1777927399 | 18.89° C | 63% | 1015 hPa | 0 mm | - | 542 W/m² | - |
| 1777927098 | 19.44° C | 61% | 1015.1 hPa | 0 mm | - | 424 W/m² | - |
| 1777926795 | 19.44° C | 61% | 1015 hPa | 0 mm | - | 572 W/m² | - |
| 1777926490 | 18.89° C | 63% | 1015 hPa | 0 mm | - | 420 W/m² | - |
| 1777926188 | 19.44° C | 59% | 1014.9 hPa | 0 mm | - | 618 W/m² | - |
| 1777925884 | 19.44° C | 61% | 1015 hPa | 0 mm | - | 616 W/m² | - |
| 1777925581 | 19.44° C | 62% | 1014.9 hPa | 0 mm | - | 540 W/m² | - |
| 1777925279 | 19.44° C | 61% | 1015.1 hPa | 0 mm | - | 456 W/m² | - |
| 1777924975 | 19.44° C | 60% | 1014.6 hPa | 0 mm | - | 789 W/m² | - |
| 1777924672 | 19.44° C | 61% | 1014.6 hPa | 0 mm | - | 581 W/m² | - |
| 1777924367 | 19.44° C | 61% | 1014.9 hPa | 0 mm | - | 460 W/m² | - |
| 1777924065 | 19.44° C | 60% | 1014.9 hPa | 0 mm | - | 533 W/m² | - |
| 1777923761 | 18.89° C | 60% | 1015 hPa | 0 mm | - | 458 W/m² | - |
| 1777923457 | 19.44° C | 59% | 1014.8 hPa | 0 mm | - | 553 W/m² | - |
| 1777923155 | 18.89° C | 60% | 1014.8 hPa | 0 mm | - | 621 W/m² | - |
| 1777922853 | 18.89° C | 60% | 1014.7 hPa | 0 mm | - | 683 W/m² | - |
| 1777922551 | 18.89° C | 61% | 1015 hPa | 0 mm | - | 634 W/m² | - |
| 1777922249 | 19.44° C | 59% | 1014.9 hPa | 0 mm | - | 374 W/m² | - |
| 1777921946 | 19.44° C | 58% | 1014.9 hPa | 0 mm | - | 648 W/m² | - |
| 1777921641 | 19.44° C | 58% | 1014.9 hPa | 0 mm | - | 609 W/m² | - |
* Rain latest hour (hover to see other rain measurements)
** Current wind speed in m/s (hover to see current wind gust speed)